Time;durP1;ratioP1;P1;durP2;ratioP2;P2;SDS_P1;SDS_P2;PMS_P1;PMS_P2;Temp;Humidity;BMP_temperature;BMP_pressure;BME280_temperature;BME280_humidity;BME280_pressure;Samples;Min_cycle;Max_cycle;Signal;HPM_P1;HPM_P2
2023/03/13 00:01:51;;;;;;;6.13;4.70;;;;;;;-143.84;65.75;45224.25;5130630;28;20508;-70
2023/03/13 00:04:18;;;;;;;5.83;4.50;;;;;;;-143.84;65.24;45209.03;5131022;27;20437;-70
2023/03/13 00:06:45;;;;;;;8.00;4.27;;;;;;;-143.84;65.13;45210.94;5129661;27;20515;-70
2023/03/13 00:09:15;;;;;;;5.10;4.67;;;;;;;-143.84;65.12;45174.75;5129999;28;20808;-70
2023/03/13 00:11:42;;;;;;;5.20;4.67;;;;;;;-143.84;64.57;45184.25;5131125;28;20438;-70
2023/03/13 00:14:10;;;;;;;4.63;4.30;;;;;;;-143.84;63.71;45209.03;5130496;28;20438;-70
2023/03/13 00:16:38;;;;;;;6.07;4.80;;;;;;;-143.84;63.51;45191.88;5130511;27;21259;-70
2023/03/13 00:19:07;;;;;;;6.63;4.50;;;;;;;-143.84;63.37;45170.94;5130749;27;21023;-70
2023/03/13 00:21:36;;;;;;;7.00;3.90;;;;;;;-143.84;62.94;45214.72;5130865;27;20442;-70
2023/03/13 00:24:04;;;;;;;4.87;4.47;;;;;;;-143.84;62.66;45212.84;5130508;28;20448;-70
2023/03/13 00:26:31;;;;;;;4.73;4.30;;;;;;;-143.84;62.61;45229.97;5130608;28;20454;-70
2023/03/13 00:28:58;;;;;;;4.90;4.40;;;;;;;-143.84;62.74;45178.56;5133080;27;20442;-70
2023/03/13 00:31:27;;;;;;;4.73;4.30;;;;;;;-143.84;62.37;45195.69;5133544;27;20677;-70
2023/03/13 00:33:58;;;;;;;5.53;4.70;;;;;;;-143.84;61.97;45172.84;5134651;27;20434;-70
2023/03/13 00:36:27;;;;;;;5.70;4.90;;;;;;;-143.84;61.94;45174.75;5134190;27;21006;-72
2023/03/13 00:38:55;;;;;;;4.00;3.67;;;;;;;-143.84;61.49;45167.13;5134694;27;20502;-70
2023/03/13 00:41:24;;;;;;;4.73;4.23;;;;;;;-143.84;61.73;45188.06;5134269;27;20434;-70
2023/03/13 00:43:51;;;;;;;4.97;4.47;;;;;;;-143.84;61.53;45180.47;5134451;27;20478;-70
2023/03/13 00:46:20;;;;;;;4.47;4.07;;;;;;;-143.84;61.09;45161.41;5134307;27;20482;-70
2023/03/13 00:48:47;;;;;;;4.90;4.30;;;;;;;-143.84;60.95;45186.16;5134354;27;20498;-70
2023/03/13 00:51:17;;;;;;;4.20;3.80;;;;;;;-143.84;60.69;45186.16;5134254;27;20462;-70
2023/03/13 00:53:45;;;;;;;7.43;4.43;;;;;;;-143.84;60.58;45195.69;5132730;27;20442;-70
2023/03/13 00:56:13;;;;;;;6.87;4.97;;;;;;;-143.84;60.39;45205.22;5133554;27;20998;-70
2023/03/13 00:58:42;;;;;;;5.07;4.57;;;;;;;-143.84;60.36;45189.97;5134431;27;20449;-70
2023/03/13 01:01:11;;;;;;;7.10;4.53;;;;;;;-143.84;60.16;45197.59;5133663;27;20808;-70
2023/03/13 01:03:39;;;;;;;5.37;3.77;;;;;;;-143.84;59.83;45178.56;5133859;27;20470;-70
2023/03/13 01:06:09;;;;;;;4.67;4.27;;;;;;;-143.84;59.23;45180.47;5134305;27;20913;-70
2023/03/13 01:08:37;;;;;;;4.57;4.17;;;;;;;-143.84;59.41;45167.13;5133825;27;20434;-70
2023/03/13 01:11:06;;;;;;;5.80;4.10;;;;;;;-143.84;59.16;45197.59;5133774;27;20484;-69
2023/03/13 01:13:34;;;;;;;4.50;4.10;;;;;;;-143.84;58.69;45170.94;5133938;27;20984;-70
2023/03/13 01:16:03;;;;;;;5.50;4.00;;;;;;;-143.84;58.52;45191.88;5132232;27;20473;-69
2023/03/13 01:18:30;;;;;;;3.93;3.60;;;;;;;-143.84;58.47;45180.47;5132861;27;20434;-69
2023/03/13 01:20:57;;;;;;;5.00;4.30;;;;;;;-143.84;58.28;45197.59;5133431;27;20450;-69
2023/03/13 01:23:26;;;;;;;4.33;3.90;;;;;;;-143.84;58.15;45163.31;5131679;27;20507;-69
2023/03/13 01:25:55;;;;;;;4.40;4.00;;;;;;;-143.84;57.99;45186.16;5131762;27;20478;-69
2023/03/13 01:28:22;;;;;;;5.00;4.50;;;;;;;-143.84;57.91;45193.78;5132709;27;20453;-69
2023/03/13 01:30:50;;;;;;;4.80;4.37;;;;;;;-143.84;58.41;45184.25;5132379;27;20509;-69
2023/03/13 01:33:17;;;;;;;4.17;3.77;;;;;;;-143.84;57.56;45197.59;5132557;27;20446;-69
2023/03/13 01:35:45;;;;;;;5.27;4.77;;;;;;;-143.84;57.71;45169.03;5133103;27;20857;-69
2023/03/13 01:38:12;;;;;;;8.13;4.00;;;;;;;-143.84;57.75;45195.69;5131816;27;20518;-69
2023/03/13 01:40:40;;;;;;;4.73;4.13;;;;;;;-143.84;58.11;45209.03;5126486;27;20426;-70
2023/03/13 01:43:25;;;;;;;5.70;3.57;;;;;;;-143.84;57.54;45191.88;5112724;28;21449;-70
2023/03/13 01:45:58;;;;;;;6.00;4.30;;;;;;;-143.84;57.78;45195.69;5109934;28;20435;-70
2023/03/13 01:48:31;;;;;;;5.80;4.63;;;;;;;-143.84;57.53;45224.25;5112608;28;20492;-70
2023/03/13 01:51:02;;;;;;;3.77;3.47;;;;;;;-143.84;57.50;45180.47;5112222;28;20447;-70
2023/03/13 01:53:31;;;;;;;4.13;3.83;;;;;;;-143.84;57.65;45170.94;5112321;28;20516;-70
2023/03/13 01:56:01;;;;;;;5.90;4.40;;;;;;;-143.84;57.64;45176.66;5112712;28;20478;-70
2023/03/13 01:58:30;;;;;;;4.67;4.13;;;;;;;-143.84;57.42;45193.78;5112375;28;20470;-70
2023/03/13 02:00:58;;;;;;;4.50;4.00;;;;;;;-143.84;57.76;45188.06;5111284;28;20867;-70
2023/03/13 02:03:27;;;;;;;4.20;3.80;;;;;;;-143.84;57.52;45178.56;5111981;28;20431;-70
2023/03/13 02:05:59;;;;;;;9.73;5.47;;;;;;;-143.84;56.85;45172.84;5112126;28;20439;-70
2023/03/13 02:08:32;;;;;;;10.43;4.50;;;;;;;-143.84;56.90;45172.84;5112567;28;20471;-70
2023/03/13 02:11:08;;;;;;;7.27;4.70;;;;;;;-143.84;57.00;45197.59;5111905;28;20469;-70
2023/03/13 02:13:36;;;;;;;6.23;4.57;;;;;;;-143.84;57.36;45209.03;5112185;28;20430;-70
2023/03/13 02:16:05;;;;;;;4.17;3.80;;;;;;;-143.84;57.44;45201.41;5111792;28;20479;-70
2023/03/13 02:18:32;;;;;;;3.90;3.57;;;;;;;-143.84;57.59;45209.03;5111998;28;20897;-70
2023/03/13 02:21:08;;;;;;;5.30;4.13;;;;;;;-143.84;57.54;45176.66;5111746;28;20516;-70
2023/03/13 02:23:42;;;;;;;19.50;3.93;;;;;;;-143.84;57.76;45184.25;5111116;28;20415;-70
2023/03/13 02:26:11;;;;;;;4.47;4.07;;;;;;;-143.84;57.85;45191.88;5111153;28;20427;-70
2023/03/13 02:28:39;;;;;;;5.37;4.60;;;;;;;-143.84;57.53;45193.78;5111656;28;20435;-70
2023/03/13 02:31:06;;;;;;;6.20;4.20;;;;;;;-143.84;57.38;45203.31;5111717;28;20438;-70
2023/03/13 02:33:37;;;;;;;5.20;4.40;;;;;;;-143.84;57.21;45188.06;5111817;28;20439;-70
2023/03/13 02:36:07;;;;;;;4.10;3.63;;;;;;;-143.84;56.99;45222.34;5111580;28;20479;-70
2023/03/13 02:38:38;;;;;;;4.87;4.37;;;;;;;-143.84;57.59;45193.78;5111444;28;20519;-71
2023/03/13 02:41:06;;;;;;;7.70;5.10;;;;;;;-143.84;57.51;45161.41;5111580;28;20928;-70
2023/03/13 02:43:36;;;;;;;5.70;4.60;;;;;;;-143.84;57.82;45167.13;5111334;28;21305;-70
2023/03/13 02:46:06;;;;;;;8.33;4.57;;;;;;;-143.84;57.72;45186.16;5110594;28;20443;-70
2023/03/13 02:48:36;;;;;;;7.13;4.93;;;;;;;-143.84;57.64;45193.78;5110833;28;20492;-70
2023/03/13 02:51:09;;;;;;;5.90;4.40;;;;;;;-143.84;57.67;45188.06;5111513;28;20492;-70
2023/03/13 02:53:37;;;;;;;4.80;4.07;;;;;;;-143.84;57.59;45182.38;5111848;28;20991;-70
2023/03/13 02:56:05;;;;;;;8.03;4.33;;;;;;;-143.84;57.48;45193.78;5111266;28;20523;-70
2023/03/13 02:58:39;;;;;;;4.80;3.80;;;;;;;-143.84;57.46;45207.13;5111460;28;20447;-70
2023/03/13 03:01:06;;;;;;;4.93;4.43;;;;;;;-143.84;57.62;45169.03;5111370;28;20434;-70
2023/03/13 03:03:35;;;;;;;4.90;4.37;;;;;;;-143.84;57.85;45199.50;5110917;28;20443;-70
2023/03/13 03:06:02;;;;;;;6.67;4.63;;;;;;;-143.84;57.87;45161.41;5090689;28;20451;-70
2023/03/13 03:08:30;;;;;;;5.10;4.60;;;;;;;-143.84;57.90;45220.44;5090088;28;20436;-70
2023/03/13 03:10:57;;;;;;;5.20;4.00;;;;;;;-143.84;58.07;45188.06;5089672;28;20436;-70
2023/03/13 03:13:24;;;;;;;9.83;6.27;;;;;;;-143.84;58.10;45161.41;5090036;28;21006;-70
2023/03/13 03:15:53;;;;;;;6.07;5.00;;;;;;;-143.84;58.27;45153.81;5090543;28;20496;-70
2023/03/13 03:18:20;;;;;;;5.67;5.10;;;;;;;-143.84;58.51;45193.78;5090346;28;20484;-70
2023/03/13 03:20:47;;;;;;;5.10;4.60;;;;;;;-143.84;58.67;45197.59;5090396;28;20526;-70
2023/03/13 03:23:14;;;;;;;4.07;3.77;;;;;;;-143.84;58.87;45250.91;5090476;28;20436;-70
2023/03/13 03:25:41;;;;;;;6.33;4.70;;;;;;;-143.84;58.87;45188.06;5090594;28;20480;-70
2023/03/13 03:28:08;;;;;;;6.50;4.60;;;;;;;-143.84;58.99;45189.97;5090617;28;20506;-70
2023/03/13 03:30:35;;;;;;;5.07;4.43;;;;;;;-143.84;59.36;45178.56;5090044;28;20553;-70
2023/03/13 03:33:04;;;;;;;6.23;4.40;;;;;;;-143.84;59.50;45197.59;5089117;28;20470;-70
2023/03/13 03:35:32;;;;;;;7.40;4.93;;;;;;;-143.84;59.36;45184.25;5089755;28;20523;-70
2023/03/13 03:38:00;;;;;;;4.43;3.83;;;;;;;-143.84;59.44;45170.94;5089947;28;20495;-70
2023/03/13 03:40:29;;;;;;;5.23;4.53;;;;;;;-143.84;59.70;45210.94;5090278;28;20450;-70
2023/03/13 03:42:56;;;;;;;5.07;4.57;;;;;;;-143.84;60.45;45189.97;5090262;28;20814;-70
2023/03/13 03:45:23;;;;;;;6.50;4.90;;;;;;;-143.84;60.84;45205.22;5090438;28;20440;-70
2023/03/13 03:47:50;;;;;;;6.23;4.23;;;;;;;-143.84;60.64;45203.31;5089824;28;20501;-69
2023/03/13 03:50:18;;;;;;;7.27;4.23;;;;;;;-143.84;60.88;45178.56;5089825;28;20457;-69
2023/03/13 03:52:45;;;;;;;4.97;4.17;;;;;;;-143.84;61.62;45205.22;5089890;28;21084;-69
2023/03/13 03:55:13;;;;;;;6.30;4.90;;;;;;;-143.84;61.07;45197.59;5088671;28;20436;-70
2023/03/13 03:57:40;;;;;;;5.83;4.47;;;;;;;-143.84;61.56;45176.66;5088995;28;20886;-70
2023/03/13 04:00:10;;;;;;;4.97;4.47;;;;;;;-143.84;61.65;45199.50;5089807;28;20460;-70
2023/03/13 04:02:38;;;;;;;5.20;4.47;;;;;;;-143.84;61.66;45174.75;5089102;28;20443;-70
2023/03/13 04:05:05;;;;;;;7.80;4.90;;;;;;;-143.84;62.00;45209.03;5089643;28;20472;-69
2023/03/13 04:07:34;;;;;;;5.50;4.37;;;;;;;-143.84;62.07;45189.97;5089865;28;20459;-70
2023/03/13 04:10:01;;;;;;;11.23;4.60;;;;;;;-143.84;62.68;45195.69;5089596;28;20440;-70
2023/03/13 04:12:28;;;;;;;4.80;4.43;;;;;;;-143.84;62.41;45195.69;5089965;28;20445;-69
2023/03/13 04:14:55;;;;;;;4.50;3.83;;;;;;;-143.84;62.37;45193.78;5092093;28;20444;-70
2023/03/13 04:17:22;;;;;;;4.37;3.80;;;;;;;-143.84;62.83;45214.72;5088349;28;20471;-69
2023/03/13 04:19:49;;;;;;;5.77;4.67;;;;;;;-143.84;63.04;45189.97;5088828;28;20439;-69
2023/03/13 04:22:16;;;;;;;13.83;5.17;;;;;;;-143.84;63.28;45191.88;5089676;28;20918;-70
2023/03/13 04:24:45;;;;;;;5.23;4.70;;;;;;;-143.84;63.23;45209.03;5089474;28;20439;-72
2023/03/13 04:27:12;;;;;;;5.20;4.43;;;;;;;-143.84;63.42;45205.22;5088979;28;20447;-71
2023/03/13 04:29:39;;;;;;;6.47;4.50;;;;;;;-143.84;63.61;45210.94;5089230;28;20493;-70
2023/03/13 04:32:07;;;;;;;7.70;5.07;;;;;;;-143.84;63.92;45197.59;5089220;28;20447;-69
2023/03/13 04:34:34;;;;;;;7.33;6.20;;;;;;;-143.84;64.02;45216.63;5089280;28;20440;-69
2023/03/13 04:37:01;;;;;;;10.77;6.23;;;;;;;-143.84;63.90;45205.22;5094116;28;20483;-69
2023/03/13 04:39:29;;;;;;;9.77;6.27;;;;;;;-143.84;64.41;45193.78;5108786;28;20512;-70
2023/03/13 04:41:57;;;;;;;8.33;7.40;;;;;;;-143.84;64.91;45205.22;5108364;28;20501;-71
2023/03/13 04:44:24;;;;;;;6.83;6.23;;;;;;;-143.84;64.93;45186.16;5109138;28;20500;-70
2023/03/13 04:46:51;;;;;;;9.17;6.00;;;;;;;-143.84;65.27;45226.16;5109625;28;20922;-70
2023/03/13 04:49:19;;;;;;;10.73;7.17;;;;;;;-143.84;65.36;45218.53;5099716;28;20497;-71
2023/03/13 04:51:47;;;;;;;7.70;6.90;;;;;;;-143.84;65.18;45184.25;5094173;28;20443;-70
2023/03/13 04:54:14;;;;;;;7.20;6.50;;;;;;;-143.84;65.23;45197.59;5099691;28;20440;-70
2023/03/13 04:56:41;;;;;;;8.60;6.90;;;;;;;-143.84;65.33;45205.22;5109707;28;20439;-69
2023/03/13 04:59:11;;;;;;;11.57;6.60;;;;;;;-143.84;65.16;45188.06;5109708;28;20511;-69
2023/03/13 05:01:38;;;;;;;12.83;9.70;;;;;;;-143.84;64.64;45172.84;5109325;28;20434;-69
2023/03/13 05:04:06;;;;;;;8.03;6.23;;;;;;;-143.84;64.44;45207.13;5104254;28;20518;-68
2023/03/13 05:06:33;;;;;;;16.63;6.57;;;;;;;-143.84;64.56;45222.34;5107175;28;20523;-69
2023/03/13 05:09:00;;;;;;;12.10;6.83;;;;;;;-143.84;64.33;45212.84;5105501;28;20911;-69
2023/03/13 05:11:28;;;;;;;8.13;6.10;;;;;;;-143.84;64.31;45197.59;5109572;28;20443;-69
2023/03/13 05:13:55;;;;;;;5.73;5.20;;;;;;;-143.84;64.21;45195.69;5109968;28;21021;-69
2023/03/13 05:16:23;;;;;;;6.90;6.30;;;;;;;-143.84;64.79;45188.06;5112615;28;20472;-69
2023/03/13 05:18:51;;;;;;;13.50;6.47;;;;;;;-143.84;64.45;45197.59;5112772;28;20477;-69
2023/03/13 05:21:18;;;;;;;7.43;6.33;;;;;;;-143.84;63.72;45170.94;5107730;28;20419;-69
2023/03/13 05:23:45;;;;;;;6.30;5.80;;;;;;;-143.84;63.17;45189.97;5112959;28;20446;-69
2023/03/13 05:26:12;;;;;;;10.77;7.70;;;;;;;-143.84;62.62;45199.50;5112434;28;20442;-69
2023/03/13 05:28:39;;;;;;;10.97;6.97;;;;;;;-143.84;61.99;45210.94;5110951;28;20480;-69
2023/03/13 05:31:07;;;;;;;11.60;7.10;;;;;;;-143.84;61.13;45195.69;5110707;28;20447;-70
2023/03/13 05:33:35;;;;;;;11.00;6.60;;;;;;;-143.84;58.50;45193.78;5110598;28;20453;-69
2023/03/13 05:36:02;;;;;;;8.13;5.77;;;;;;;-143.84;56.68;45191.88;5110594;28;21017;-69
2023/03/13 05:38:29;;;;;;;7.17;6.43;;;;;;;-143.84;53.67;45155.69;5108640;28;20479;-69
2023/03/13 05:40:56;;;;;;;7.50;6.70;;;;;;;-143.84;52.77;45174.75;5109287;28;20430;-69
2023/03/13 05:43:24;;;;;;;7.27;6.53;;;;;;;-143.84;51.50;45170.94;5109435;28;20443;-69
2023/03/13 05:45:51;;;;;;;9.07;6.70;;;;;;;-143.84;49.63;45148.09;5111510;28;20496;-69
2023/03/13 05:48:18;;;;;;;11.70;9.50;;;;;;;-143.84;49.60;45142.38;5111247;28;20835;-69
2023/03/13 05:50:47;;;;;;;11.20;8.37;;;;;;;-143.84;48.41;45157.59;5111357;28;20446;-69
2023/03/13 05:53:14;;;;;;;9.50;8.17;;;;;;;-143.84;45.04;45159.50;5110866;28;20446;-69
2023/03/13 05:55:42;;;;;;;7.40;6.50;;;;;;;-143.84;44.18;45136.66;5111428;28;20533;-69
2023/03/13 05:58:09;;;;;;;7.87;6.70;;;;;;;-143.84;44.19;45146.19;5109949;28;21081;-69
2023/03/13 06:00:36;;;;;;;10.37;9.27;;;;;;;-143.84;43.67;45125.22;5110292;28;20446;-70
2023/03/13 06:03:03;;;;;;;5.57;5.07;;;;;;;-143.84;42.09;45150.00;5110004;28;20446;-70
2023/03/13 06:05:30;;;;;;;6.60;5.90;;;;;;;-143.84;41.37;45138.56;5109903;28;20573;-70
2023/03/13 06:07:59;;;;;;;8.10;5.57;;;;;;;-143.84;39.77;45130.94;5110113;28;20431;-70
2023/03/13 06:10:26;;;;;;;17.23;9.90;;;;;;;-143.84;38.52;45132.84;5110239;28;20520;-70
2023/03/13 06:12:54;;;;;;;8.73;7.47;;;;;;;-143.84;37.93;45121.44;5110501;28;20934;-71
2023/03/13 06:15:21;;;;;;;7.23;5.80;;;;;;;-143.84;37.91;45127.13;5111051;28;20435;-71
2023/03/13 06:17:48;;;;;;;7.03;4.80;;;;;;;-143.84;36.67;45130.94;5110312;28;20483;-71
2023/03/13 06:20:16;;;;;;;5.30;4.57;;;;;;;-143.84;35.99;45121.44;5110386;28;20500;-71
2023/03/13 06:22:43;;;;;;;5.80;4.20;;;;;;;-143.84;36.18;45132.84;5110940;28;20503;-71
2023/03/13 06:25:12;;;;;;;11.13;5.37;;;;;;;-143.84;36.58;45115.72;5110337;28;20522;-71
2023/03/13 06:27:39;;;;;;;8.40;3.53;;;;;;;-143.84;35.36;45121.44;5110594;28;20500;-71
2023/03/13 06:30:06;;;;;;;5.10;4.40;;;;;;;-143.84;35.62;45106.19;5110776;28;20490;-71
2023/03/13 06:32:33;;;;;;;8.70;4.60;;;;;;;-143.84;34.75;45138.56;5110875;28;20509;-71
2023/03/13 06:35:01;;;;;;;23.67;16.77;;;;;;;-143.84;35.12;45092.88;5110718;28;20444;-70
2023/03/13 06:37:28;;;;;;;5.70;4.83;;;;;;;-143.84;34.71;45094.78;5110550;28;20930;-70
2023/03/13 06:39:55;;;;;;;12.30;5.20;;;;;;;-143.84;35.30;45123.34;5110728;28;21383;-70
2023/03/13 06:42:23;;;;;;;13.43;4.33;;;;;;;-143.84;34.23;45129.03;5110498;28;20519;-70
2023/03/13 06:44:50;;;;;;;3.60;3.30;;;;;;;-143.84;34.06;45129.03;5109946;28;20442;-70
2023/03/13 06:47:18;;;;;;;4.53;3.77;;;;;;;-143.84;33.86;45117.63;5110110;28;20506;-70
2023/03/13 06:49:45;;;;;;;6.50;3.60;;;;;;;-143.84;33.72;45111.91;5110823;28;20489;-70
2023/03/13 06:52:12;;;;;;;3.90;3.60;;;;;;;-143.84;33.34;45132.84;5110207;28;20926;-70
2023/03/13 06:54:39;;;;;;;4.40;3.70;;;;;;;-143.84;33.50;45130.94;5110286;28;20521;-70
2023/03/13 06:57:06;;;;;;;4.27;3.40;;;;;;;-143.84;33.54;45121.44;5110150;28;20446;-70
2023/03/13 06:59:34;;;;;;;15.97;3.50;;;;;;;-143.84;32.96;45096.66;5110107;28;20551;-70
2023/03/13 07:02:02;;;;;;;7.40;3.57;;;;;;;-143.84;32.68;45106.19;5109947;28;20503;-71
2023/03/13 07:04:29;;;;;;;6.40;3.60;;;;;;;-143.84;32.34;45106.19;5110098;28;20437;-71
2023/03/13 07:06:56;;;;;;;7.17;3.13;;;;;;;-143.84;32.96;45085.25;5109902;28;20446;-71
2023/03/13 07:09:23;;;;;;;8.10;3.57;;;;;;;-143.84;33.68;45106.19;5109205;28;20445;-71
2023/03/13 07:11:50;;;;;;;3.07;2.80;;;;;;;-143.84;32.36;45106.19;5109433;28;20450;-71
2023/03/13 07:14:17;;;;;;;3.57;3.27;;;;;;;-143.84;32.26;45132.84;5109900;28;20538;-71
2023/03/13 07:16:46;;;;;;;5.00;3.00;;;;;;;-143.84;32.68;45119.53;5109653;28;20530;-71
2023/03/13 07:19:14;;;;;;;6.30;2.70;;;;;;;-143.84;33.48;45110.00;5109643;28;20905;-71
2023/03/13 07:21:41;;;;;;;5.30;2.43;;;;;;;-143.84;32.50;45106.19;5109303;28;20449;-71
2023/03/13 07:24:08;;;;;;;4.20;2.53;;;;;;;-143.84;31.97;45102.38;5109885;28;20501;-71
2023/03/13 07:26:35;;;;;;;3.53;2.87;;;;;;;-143.84;32.32;45106.19;5109613;28;21260;-71
2023/03/13 07:29:02;;;;;;;4.30;2.90;;;;;;;-143.84;32.29;45090.97;5109399;28;20850;-71
2023/03/13 07:31:32;;;;;;;9.63;2.83;;;;;;;-143.84;31.92;45104.28;5109381;28;20445;-71
2023/03/13 07:34:01;;;;;;;7.53;2.90;;;;;;;-143.84;31.79;45106.19;5109748;28;20438;-71
2023/03/13 07:36:29;;;;;;;2.93;2.40;;;;;;;-143.84;32.66;45123.34;5109090;28;20443;-71
2023/03/13 07:38:56;;;;;;;4.57;2.80;;;;;;;-143.84;31.37;45092.88;5107454;28;20442;-71
2023/03/13 07:41:23;;;;;;;5.30;3.20;;;;;;;-143.84;31.85;45106.19;5109109;28;20211;-71
2023/03/13 07:43:50;;;;;;;6.57;2.40;;;;;;;-143.84;31.96;45127.13;5109233;28;20951;-71
2023/03/13 07:46:20;;;;;;;3.30;3.00;;;;;;;-143.84;31.76;45106.19;5109641;28;21322;-71
2023/03/13 07:48:47;;;;;;;8.00;2.93;;;;;;;-143.84;31.18;45096.66;5109438;28;21117;-71
2023/03/13 07:51:18;;;;;;;3.00;2.47;;;;;;;-143.84;31.87;45092.88;5109390;28;21318;-71
2023/03/13 07:53:47;;;;;;;3.00;2.80;;;;;;;-143.84;31.79;45121.44;5109271;28;20450;-71
2023/03/13 07:56:16;;;;;;;8.33;2.40;;;;;;;-143.84;29.38;45094.78;5109566;28;21155;-71
2023/03/13 07:58:44;;;;;;;4.50;2.70;;;;;;;-143.84;30.13;45098.56;5109215;28;20501;-71
2023/03/13 08:01:13;;;;;;;2.50;2.30;;;;;;;-143.84;29.06;45106.19;5108984;28;20499;-71
2023/03/13 08:03:40;;;;;;;3.73;1.93;;;;;;;-143.84;29.79;45087.16;5109018;28;20449;-71
2023/03/13 08:06:09;;;;;;;2.40;2.10;;;;;;;-143.84;30.35;45087.16;5109023;28;20868;-71
2023/03/13 08:08:39;;;;;;;1.83;1.73;;;;;;;-143.84;30.29;45106.19;5108634;28;20433;-71
2023/03/13 08:11:07;;;;;;;2.60;2.40;;;;;;;-143.84;30.13;45102.38;5109089;28;20441;-71
2023/03/13 08:13:35;;;;;;;9.30;2.17;;;;;;;-143.84;30.07;45090.97;5109278;28;20499;-71
2023/03/13 08:16:05;;;;;;;2.23;2.03;;;;;;;-143.84;29.07;45075.72;5108989;28;20486;-71
2023/03/13 08:18:33;;;;;;;4.90;1.73;;;;;;;-143.84;29.48;45108.09;5108923;28;20854;-71
2023/03/13 08:21:06;;;;;;;1.90;1.80;;;;;;;-143.84;29.21;45100.47;5108824;28;20962;-71
2023/03/13 08:23:33;;;;;;;3.47;1.70;;;;;;;-143.84;29.76;45113.81;5108651;28;20520;-71
2023/03/13 08:26:07;;;;;;;3.93;1.90;;;;;;;-143.84;29.12;45089.06;5109154;28;20449;-71
2023/03/13 08:28:35;;;;;;;5.53;1.90;;;;;;;-143.84;28.88;45102.38;5108975;28;20578;-71
2023/03/13 08:31:08;;;;;;;4.37;1.73;;;;;;;-143.84;29.15;45079.53;5108902;28;20944;-71
2023/03/13 08:33:35;;;;;;;1.97;1.70;;;;;;;-143.84;29.55;45102.38;5108909;28;21011;-71
2023/03/13 08:36:10;;;;;;;3.50;2.27;;;;;;;-143.84;30.07;45098.56;5108676;28;20435;-71
2023/03/13 08:38:38;;;;;;;2.00;1.30;;;;;;;-143.84;30.28;45083.34;5108445;28;20482;-71
2023/03/13 08:41:07;;;;;;;2.50;2.30;;;;;;;-143.84;29.82;45087.16;5108746;28;20440;-71
2023/03/13 08:43:34;;;;;;;2.23;2.03;;;;;;;-143.84;29.95;45071.91;5108678;28;20454;-71
2023/03/13 08:46:01;;;;;;;2.60;1.93;;;;;;;-143.84;30.53;45089.06;5108672;28;20435;-70
2023/03/13 08:48:28;;;;;;;4.27;2.97;;;;;;;-143.84;30.23;45094.78;5108012;28;20464;-71
2023/03/13 08:51:03;;;;;;;3.70;2.37;;;;;;;-143.84;30.22;45073.81;5112039;28;20468;-71
2023/03/13 08:53:31;;;;;;;2.60;1.93;;;;;;;-143.84;30.68;45085.25;5112546;28;20440;-71
2023/03/13 08:55:58;;;;;;;6.83;1.50;;;;;;;-143.84;30.07;45070.00;5112533;28;20525;-71
2023/03/13 08:58:27;;;;;;;4.10;1.70;;;;;;;-143.84;30.59;45090.97;5112205;28;20481;-71
2023/03/13 09:00:55;;;;;;;3.10;2.10;;;;;;;-143.84;31.15;45071.91;5112284;28;20499;-71
2023/03/13 09:03:22;;;;;;;4.20;1.77;;;;;;;-143.84;30.47;45087.16;5112619;28;20445;-71
2023/03/13 09:05:50;;;;;;;2.13;2.03;;;;;;;-143.84;30.37;45087.16;5112082;28;20936;-71
2023/03/13 09:08:17;;;;;;;7.23;1.80;;;;;;;-143.84;31.89;45083.34;5112181;28;20855;-71
2023/03/13 09:10:44;;;;;;;28.33;2.87;;;;;;;-143.84;29.67;45104.28;5112173;28;20439;-71
2023/03/13 09:13:11;;;;;;;16.70;9.27;;;;;;;-143.84;30.53;45085.25;5111521;28;20430;-72
2023/03/13 09:15:40;;;;;;;11.30;2.50;;;;;;;-143.84;30.79;45068.13;5110800;28;20934;-71
2023/03/13 09:18:07;;;;;;;11.03;3.50;;;;;;;-143.84;32.29;45068.13;5112238;28;20257;-71
2023/03/13 09:20:34;;;;;;;4.20;2.90;;;;;;;-143.84;32.58;45108.09;5112400;28;20450;-71
2023/03/13 09:23:01;;;;;;;5.10;2.50;;;;;;;-143.84;31.28;45108.09;5112220;28;21332;-71
2023/03/13 09:25:28;;;;;;;3.37;2.10;;;;;;;-143.84;31.52;45092.88;5112211;28;20915;-71
2023/03/13 09:27:55;;;;;;;4.93;2.53;;;;;;;-143.84;31.55;45106.19;5112318;28;20447;-71
2023/03/13 09:30:22;;;;;;;4.43;3.07;;;;;;;-143.84;31.75;45075.72;5111982;28;20508;-71
2023/03/13 09:32:51;;;;;;;4.83;2.60;;;;;;;-143.84;32.20;45083.34;5112049;28;21248;-71
2023/03/13 09:35:18;;;;;;;4.77;2.60;;;;;;;-143.84;32.69;45090.97;5111906;28;20435;-71
2023/03/13 09:37:45;;;;;;;6.37;3.07;;;;;;;-143.84;32.70;45094.78;5111337;28;20486;-71
2023/03/13 09:40:15;;;;;;;3.40;2.70;;;;;;;-143.84;33.25;45096.66;5111266;28;20539;-71
2023/03/13 09:42:48;;;;;;;4.00;2.20;;;;;;;-143.84;32.54;45070.00;5111572;28;20633;-71
2023/03/13 09:45:22;;;;;;;3.60;2.50;;;;;;;-143.84;33.62;45087.16;5111478;28;20439;-71
2023/03/13 09:47:54;;;;;;;3.40;2.53;;;;;;;-143.84;33.48;45073.81;5111468;28;20472;-71
2023/03/13 09:50:27;;;;;;;10.83;2.63;;;;;;;-143.84;32.75;45090.97;5111183;28;20449;-71
2023/03/13 09:52:59;;;;;;;8.70;1.70;;;;;;;-143.84;33.44;45102.38;5111719;28;20927;-71
2023/03/13 09:55:30;;;;;;;4.03;2.00;;;;;;;-143.84;33.67;45089.06;5111363;28;20507;-71
2023/03/13 09:58:04;;;;;;;1.70;1.60;;;;;;;-143.84;33.68;45108.09;5111225;28;20518;-71
2023/03/13 10:00:36;;;;;;;1.70;1.57;;;;;;;-143.84;33.40;45085.25;5110350;28;20867;-71
2023/03/13 10:03:13;;;;;;;2.80;1.80;;;;;;;-143.84;34.49;45090.97;5110028;28;20433;-71
2023/03/13 10:05:46;;;;;;;3.20;1.60;;;;;;;-143.84;34.63;45083.34;5110267;28;20498;-71
2023/03/13 10:08:17;;;;;;;1.83;1.57;;;;;;;-143.84;34.53;45085.25;5110243;28;20499;-71
2023/03/13 10:10:49;;;;;;;5.87;1.93;;;;;;;-143.84;33.92;45071.91;5110523;28;20517;-71
2023/03/13 10:13:22;;;;;;;6.43;1.73;;;;;;;-143.84;34.97;45092.88;5110483;28;20449;-70
2023/03/13 10:15:55;;;;;;;1.80;1.30;;;;;;;-143.84;34.51;45089.06;5110677;28;21232;-70
2023/03/13 10:18:26;;;;;;;2.43;1.70;;;;;;;-143.84;34.51;45104.28;5110196;28;20467;-70
2023/03/13 10:20:58;;;;;;;2.17;1.60;;;;;;;-143.84;34.87;45106.19;5093402;28;20448;-70
2023/03/13 10:23:32;;;;;;;5.03;1.90;;;;;;;-143.84;34.84;45064.31;5090274;28;20450;-70
2023/03/13 10:25:59;;;;;;;4.43;2.00;;;;;;;-143.84;35.21;45108.09;5090280;28;20932;-70
2023/03/13 10:28:26;;;;;;;9.60;1.73;;;;;;;-143.84;34.96;45096.66;5090548;28;20845;-70
2023/03/13 10:30:58;;;;;;;3.00;1.80;;;;;;;-143.84;35.58;45070.00;5090167;28;20487;-70
2023/03/13 10:33:29;;;;;;;3.93;2.00;;;;;;;-143.84;35.04;45111.91;5090024;28;20922;-70
2023/03/13 10:36:06;;;;;;;8.80;2.03;;;;;;;-143.84;35.22;45121.44;5090190;28;20945;-70
2023/03/13 10:38:35;;;;;;;14.23;2.60;;;;;;;-143.84;35.63;45125.22;5107588;28;20480;-70
2023/03/13 10:41:09;;;;;;;2.63;1.80;;;;;;;-143.84;34.65;45119.53;5110430;28;20430;-70
2023/03/13 10:43:51;;;;;;;3.57;1.87;;;;;;;-143.84;35.38;45092.88;5110505;28;20446;-70
2023/03/13 10:46:25;;;;;;;2.70;1.90;;;;;;;-143.84;35.09;45089.06;5110222;28;20435;-70
2023/03/13 10:48:56;;;;;;;8.10;2.13;;;;;;;-143.84;35.93;45117.63;5109157;28;20558;-71
2023/03/13 10:51:32;;;;;;;1.93;1.77;;;;;;;-143.84;35.24;45102.38;5110649;28;20873;-71
2023/03/13 10:53:59;;;;;;;11.50;2.70;;;;;;;-143.84;35.67;45110.00;5110218;28;20975;-71
2023/03/13 10:56:30;;;;;;;3.83;1.93;;;;;;;-143.84;36.90;45106.19;5110164;28;20438;-71
2023/03/13 10:58:57;;;;;;;2.90;2.50;;;;;;;-143.84;36.44;45096.66;5110050;28;20550;-71
2023/03/13 11:01:27;;;;;;;14.37;2.67;;;;;;;-143.84;35.22;45094.78;5110182;28;20453;-71
2023/03/13 11:03:59;;;;;;;12.03;1.90;;;;;;;-143.84;35.58;45094.78;5109799;28;20485;-71
2023/03/13 11:06:29;;;;;;;3.90;2.20;;;;;;;-143.84;35.88;45079.53;5110168;28;20540;-71
2023/03/13 11:09:04;;;;;;;11.93;2.40;;;;;;;-143.84;35.05;45098.56;5109823;28;20448;-71
2023/03/13 11:11:44;;;;;;;10.80;3.03;;;;;;;-143.84;35.62;45094.78;5110230;28;20542;-71
2023/03/13 11:14:16;;;;;;;4.50;2.23;;;;;;;-143.84;35.56;45094.78;5109497;28;20827;-71
2023/03/13 11:16:49;;;;;;;9.27;2.13;;;;;;;-143.84;35.81;45083.34;5110002;28;20439;-71
2023/03/13 11:19:41;;;;;;;7.30;2.00;;;;;;;-143.84;36.04;45125.22;5109606;28;20483;-71
2023/03/13 11:22:27;;;;;;;3.10;1.80;;;;;;;-143.84;36.21;45106.19;5109742;28;20483;-71
2023/03/13 11:25:09;;;;;;;3.60;2.00;;;;;;;-143.84;37.50;45110.00;5109801;28;20458;-71